Time;durP1;ratioP1;P1;durP2;ratioP2;P2;SDS_P1;SDS_P2;PMS_P1;PMS_P2;Temp;Humidity;BMP_temperature;BMP_pressure;BME280_temperature;BME280_humidity;BME280_pressure;Samples;Min_cycle;Max_cycle;Signal;HPM_P1;HPM_P2
2021/04/27 00:02:14;;;;;;;1.20;1.10;;;;;;;;;;5115193;28;20199;-42
2021/04/27 00:04:40;;;;;;;1.40;1.30;;;;;;;;;;5116077;28;20201;-42
2021/04/27 00:07:06;;;;;;;1.88;1.30;;;;;;;;;;5115600;28;20536;-42
2021/04/27 00:09:32;;;;;;;1.33;1.08;;;;;;;;;;5107436;28;20197;-42
2021/04/27 00:11:58;;;;;;;1.27;1.17;;;;;;;;;;5103720;28;20177;-42
2021/04/27 00:14:24;;;;;;;1.20;1.10;;;;;;;;;;5116123;28;20183;-42
2021/04/27 00:16:50;;;;;;;1.10;1.00;;;;;;;;;;5115675;28;20185;-42
2021/04/27 00:19:16;;;;;;;0.90;0.90;;;;;;;;;;5115847;28;20182;-42
2021/04/27 00:21:42;;;;;;;1.20;1.10;;;;;;;;;;5114787;28;20200;-42
2021/04/27 00:24:09;;;;;;;1.13;1.05;;;;;;;;;;5115470;28;20237;-42
2021/04/27 00:26:34;;;;;;;1.83;1.05;;;;;;;;;;5114383;28;20242;-42
2021/04/27 00:29:00;;;;;;;1.40;1.20;;;;;;;;;;5115362;28;20173;-42
2021/04/27 00:31:29;;;;;;;1.05;0.88;;;;;;;;;;5114900;28;20209;-42
2021/04/27 00:33:56;;;;;;;1.30;1.00;;;;;;;;;;5115391;28;20173;-42
2021/04/27 00:36:22;;;;;;;2.50;1.00;;;;;;;;;;5114733;28;20264;-42
2021/04/27 00:38:48;;;;;;;1.48;1.00;;;;;;;;;;5115510;28;20165;-42
2021/04/27 00:41:14;;;;;;;1.02;0.93;;;;;;;;;;5113234;28;20447;-42
2021/04/27 00:43:40;;;;;;;1.40;1.08;;;;;;;;;;5114428;28;20221;-42
2021/04/27 00:46:07;;;;;;;1.02;0.90;;;;;;;;;;5115586;28;20221;-42
2021/04/27 00:48:33;;;;;;;1.40;1.10;;;;;;;;;;5114991;28;20236;-42
2021/04/27 00:50:59;;;;;;;1.55;0.95;;;;;;;;;;5114223;28;20800;-42
2021/04/27 00:53:25;;;;;;;1.15;1.05;;;;;;;;;;5115122;28;20446;-42
2021/04/27 00:55:51;;;;;;;0.93;0.93;;;;;;;;;;5115245;28;20185;-42
2021/04/27 00:58:18;;;;;;;1.23;1.10;;;;;;;;;;5086949;28;20212;-42
2021/04/27 01:00:44;;;;;;;0.88;0.88;;;;;;;;;;5111715;28;20201;-42
2021/04/27 01:03:10;;;;;;;0.90;0.90;;;;;;;;;;5114765;28;20181;-42
2021/04/27 01:05:38;;;;;;;0.90;0.90;;;;;;;;;;5114578;28;20212;-42
2021/04/27 01:08:17;;;;;;;0.88;0.88;;;;;;;;;;5106627;28;20324;-42
2021/04/27 01:10:46;;;;;;;1.10;1.00;;;;;;;;;;5114309;28;20187;-42
2021/04/27 01:13:35;;;;;;;1.05;0.90;;;;;;;;;;5113002;28;20188;-42
2021/04/27 01:16:02;;;;;;;0.95;0.90;;;;;;;;;;5081730;28;20273;-42
2021/04/27 01:18:32;;;;;;;1.58;0.98;;;;;;;;;;5111221;28;20803;-42
2021/04/27 01:20:58;;;;;;;1.20;1.10;;;;;;;;;;5113987;28;20184;-42
2021/04/27 01:23:24;;;;;;;1.08;0.98;;;;;;;;;;5115191;28;20181;-42
2021/04/27 01:25:55;;;;;;;1.02;0.82;;;;;;;;;;5114853;28;20599;-42
2021/04/27 01:28:22;;;;;;;1.75;0.77;;;;;;;;;;5114322;28;20187;-42
2021/04/27 01:30:48;;;;;;;1.25;1.05;;;;;;;;;;5100837;28;20435;-42
2021/04/27 01:33:20;;;;;;;1.20;1.10;;;;;;;;;;5108429;28;20204;-42
2021/04/27 01:35:46;;;;;;;0.82;0.82;;;;;;;;;;5115074;28;20161;-42
2021/04/27 01:38:13;;;;;;;1.02;0.80;;;;;;;;;;5115087;28;20677;-42
2021/04/27 01:40:40;;;;;;;1.17;0.98;;;;;;;;;;5114196;28;20545;-42
2021/04/27 01:43:06;;;;;;;0.98;0.95;;;;;;;;;;5118000;28;20571;-42
2021/04/27 01:45:33;;;;;;;1.00;0.90;;;;;;;;;;5118925;28;20197;-42
2021/04/27 01:47:59;;;;;;;1.08;0.85;;;;;;;;;;5113745;28;20185;-42
2021/04/27 01:50:26;;;;;;;1.27;1.00;;;;;;;;;;5108516;28;20260;-42
2021/04/27 01:52:52;;;;;;;1.10;0.95;;;;;;;;;;5118292;28;20490;-42
2021/04/27 01:55:20;;;;;;;1.10;1.00;;;;;;;;;;5118358;28;20551;-42
2021/04/27 01:57:46;;;;;;;0.90;0.90;;;;;;;;;;5118471;28;20209;-42
2021/04/27 02:00:13;;;;;;;1.45;1.02;;;;;;;;;;5118719;28;20165;-42
2021/04/27 02:02:40;;;;;;;0.82;0.82;;;;;;;;;;5116729;28;20236;-42
2021/04/27 02:05:06;;;;;;;0.90;0.90;;;;;;;;;;5117943;28;20197;-42
2021/04/27 02:07:34;;;;;;;0.88;0.88;;;;;;;;;;5118475;28;20189;-42
2021/04/27 02:10:05;;;;;;;1.13;0.90;;;;;;;;;;5117873;28;20173;-42
2021/04/27 02:12:32;;;;;;;0.88;0.88;;;;;;;;;;5109085;28;20192;-42
2021/04/27 02:14:59;;;;;;;0.80;0.80;;;;;;;;;;5118252;28;20181;-42
2021/04/27 02:17:31;;;;;;;0.80;0.80;;;;;;;;;;5117150;28;20183;-42
2021/04/27 02:19:58;;;;;;;1.17;0.90;;;;;;;;;;5117968;28;20189;-42
2021/04/27 02:22:26;;;;;;;0.80;0.80;;;;;;;;;;5117618;28;20197;-42
2021/04/27 02:24:54;;;;;;;0.95;0.90;;;;;;;;;;5117922;28;20253;-42
2021/04/27 02:27:20;;;;;;;0.70;0.70;;;;;;;;;;5118009;28;20328;-43
2021/04/27 02:29:46;;;;;;;1.00;0.90;;;;;;;;;;5116662;28;20162;-42
2021/04/27 02:32:13;;;;;;;1.42;0.90;;;;;;;;;;5109056;28;20214;-42
2021/04/27 02:34:39;;;;;;;0.70;0.70;;;;;;;;;;5117636;28;20173;-42
2021/04/27 02:37:06;;;;;;;1.00;0.90;;;;;;;;;;5117504;28;20174;-42
2021/04/27 02:39:32;;;;;;;1.45;1.00;;;;;;;;;;5117265;28;20230;-42
2021/04/27 02:41:58;;;;;;;1.05;0.70;;;;;;;;;;5117249;28;20270;-42
2021/04/27 02:44:25;;;;;;;0.60;0.60;;;;;;;;;;5115081;28;20599;-42
2021/04/27 02:46:51;;;;;;;0.90;0.90;;;;;;;;;;5117198;28;20173;-42
2021/04/27 02:49:17;;;;;;;0.80;0.80;;;;;;;;;;5116737;28;20184;-42
2021/04/27 02:51:43;;;;;;;0.82;0.82;;;;;;;;;;5096353;28;20517;-43
2021/04/27 02:54:10;;;;;;;0.95;0.90;;;;;;;;;;5110283;28;20177;-42
2021/04/27 02:56:36;;;;;;;0.90;0.80;;;;;;;;;;5116992;28;20173;-42
2021/04/27 02:59:03;;;;;;;0.73;0.73;;;;;;;;;;5111841;28;20183;-42
2021/04/27 03:01:29;;;;;;;1.42;1.00;;;;;;;;;;5109605;28;20203;-42
2021/04/27 03:03:55;;;;;;;0.70;0.70;;;;;;;;;;5116962;28;20230;-42
2021/04/27 03:06:21;;;;;;;0.70;0.70;;;;;;;;;;5116852;28;20226;-42
2021/04/27 03:08:47;;;;;;;1.15;0.80;;;;;;;;;;5117149;28;20205;-42
2021/04/27 03:11:13;;;;;;;0.68;0.68;;;;;;;;;;5116218;28;20228;-42
2021/04/27 03:13:39;;;;;;;0.82;0.82;;;;;;;;;;5116771;28;20460;-42
2021/04/27 03:16:05;;;;;;;0.70;0.68;;;;;;;;;;5117120;28;20212;-42
2021/04/27 03:18:31;;;;;;;0.90;0.90;;;;;;;;;;5116786;28;20185;-42
2021/04/27 03:20:57;;;;;;;1.08;0.98;;;;;;;;;;5095650;28;20186;-42
2021/04/27 03:23:24;;;;;;;0.95;0.93;;;;;;;;;;5103238;28;20169;-42
2021/04/27 03:25:50;;;;;;;1.00;0.80;;;;;;;;;;5114947;28;20200;-42
2021/04/27 03:28:17;;;;;;;0.70;0.70;;;;;;;;;;5116478;28;20484;-42
2021/04/27 03:30:43;;;;;;;1.52;1.00;;;;;;;;;;5116542;28;20629;-42
2021/04/27 03:33:09;;;;;;;1.25;0.82;;;;;;;;;;5115885;28;20548;-42
2021/04/27 03:35:35;;;;;;;1.08;0.98;;;;;;;;;;5116363;28;20176;-42
2021/04/27 03:38:01;;;;;;;0.88;0.80;;;;;;;;;;5116738;28;20168;-42
2021/04/27 03:40:27;;;;;;;0.70;0.70;;;;;;;;;;5107383;28;20169;-42
2021/04/27 03:42:53;;;;;;;0.98;0.60;;;;;;;;;;5115812;28;20574;-42
2021/04/27 03:45:21;;;;;;;0.80;0.80;;;;;;;;;;5115988;28;20284;-42
2021/04/27 03:47:47;;;;;;;1.30;0.95;;;;;;;;;;5115880;28;20445;-42
2021/04/27 03:50:16;;;;;;;1.98;0.90;;;;;;;;;;5115042;28;20181;-42
2021/04/27 03:52:42;;;;;;;1.08;1.00;;;;;;;;;;5115699;28;20276;-42
2021/04/27 03:55:08;;;;;;;1.95;0.80;;;;;;;;;;5115912;28;20264;-42
2021/04/27 03:57:35;;;;;;;0.77;0.77;;;;;;;;;;5115879;28;20182;-43
2021/04/27 04:00:01;;;;;;;0.93;0.93;;;;;;;;;;5115845;28;20193;-43
2021/04/27 04:02:27;;;;;;;1.85;0.68;;;;;;;;;;5111941;28;20201;-42
2021/04/27 04:04:53;;;;;;;4.70;1.40;;;;;;;;;;5107213;28;20538;-42
2021/04/27 04:07:19;;;;;;;7.80;2.03;;;;;;;;;;5116226;28;20272;-42
2021/04/27 04:09:45;;;;;;;17.20;4.30;;;;;;;;;;5115850;28;20189;-42
2021/04/27 04:12:11;;;;;;;22.20;4.97;;;;;;;;;;5114666;28;20177;-42
2021/04/27 04:14:37;;;;;;;21.17;4.97;;;;;;;;;;5114260;28;20234;-42
2021/04/27 04:17:04;;;;;;;19.25;3.88;;;;;;;;;;5111517;28;20185;-42
2021/04/27 04:19:30;;;;;;;14.95;3.83;;;;;;;;;;5114288;28;20169;-42
2021/04/27 04:21:56;;;;;;;11.05;3.50;;;;;;;;;;5104034;28;20193;-42
2021/04/27 04:24:22;;;;;;;10.65;3.15;;;;;;;;;;5094011;28;20269;-42
2021/04/27 04:26:48;;;;;;;18.13;3.00;;;;;;;;;;5114110;28;20252;-42
2021/04/27 04:29:14;;;;;;;8.55;2.83;;;;;;;;;;5114980;28;20210;-42
2021/04/27 04:31:40;;;;;;;8.85;2.90;;;;;;;;;;5099802;28;20169;-42
2021/04/27 04:34:06;;;;;;;13.15;2.85;;;;;;;;;;5115558;28;20635;-42
2021/04/27 04:36:32;;;;;;;12.88;2.80;;;;;;;;;;5115311;28;20255;-42
2021/04/27 04:38:58;;;;;;;10.68;2.40;;;;;;;;;;5115441;28;20188;-42
2021/04/27 04:41:24;;;;;;;9.70;2.60;;;;;;;;;;5114181;28;20180;-42
2021/04/27 04:43:50;;;;;;;9.60;2.92;;;;;;;;;;5114782;28;20188;-42
2021/04/27 04:46:17;;;;;;;8.38;2.97;;;;;;;;;;5114690;28;20283;-42
2021/04/27 04:48:43;;;;;;;8.27;2.30;;;;;;;;;;5115026;28;20552;-43
2021/04/27 04:51:09;;;;;;;8.85;2.35;;;;;;;;;;5114622;28;20277;-42
2021/04/27 04:53:35;;;;;;;7.95;2.80;;;;;;;;;;5115383;28;20157;-42
2021/04/27 04:56:01;;;;;;;7.13;2.50;;;;;;;;;;5115060;28;20177;-43
2021/04/27 04:58:27;;;;;;;7.70;2.40;;;;;;;;;;5102402;28;20181;-42
2021/04/27 05:00:53;;;;;;;5.72;2.10;;;;;;;;;;5114252;28;20581;-43
2021/04/27 05:03:19;;;;;;;6.57;2.25;;;;;;;;;;5114027;28;20181;-42
2021/04/27 05:05:46;;;;;;;6.13;2.47;;;;;;;;;;5114556;28;20193;-42
2021/04/27 05:08:16;;;;;;;5.78;2.17;;;;;;;;;;5114464;28;20169;-42
2021/04/27 05:10:42;;;;;;;4.97;2.17;;;;;;;;;;5112413;28;20736;-43
2021/04/27 05:13:08;;;;;;;6.18;2.13;;;;;;;;;;5107571;28;20177;-42
2021/04/27 05:15:34;;;;;;;5.38;2.05;;;;;;;;;;5114020;28;20185;-42
2021/04/27 05:18:01;;;;;;;5.97;2.10;;;;;;;;;;5118158;28;20181;-42
2021/04/27 05:20:27;;;;;;;6.68;2.22;;;;;;;;;;5119094;28;20181;-42
2021/04/27 05:22:53;;;;;;;5.15;2.45;;;;;;;;;;5118366;28;20257;-42
2021/04/27 05:25:19;;;;;;;5.65;2.30;;;;;;;;;;5116340;28;20591;-42
2021/04/27 05:27:45;;;;;;;4.80;2.17;;;;;;;;;;5118281;28;20196;-42
2021/04/27 05:30:12;;;;;;;3.75;2.13;;;;;;;;;;5118302;28;20418;-42
2021/04/27 05:32:38;;;;;;;5.60;1.80;;;;;;;;;;5117811;28;20248;-42
2021/04/27 05:35:05;;;;;;;5.47;2.03;;;;;;;;;;5117976;28;20564;-42
2021/04/27 05:37:31;;;;;;;4.65;2.00;;;;;;;;;;5118932;28;20481;-42
2021/04/27 05:39:57;;;;;;;3.38;1.90;;;;;;;;;;5101260;28;20178;-42
2021/04/27 05:42:23;;;;;;;5.38;2.33;;;;;;;;;;5104576;28;20177;-42
2021/04/27 05:44:49;;;;;;;4.32;1.95;;;;;;;;;;5118543;28;20454;-42
2021/04/27 05:47:16;;;;;;;5.35;1.83;;;;;;;;;;5117367;28;20256;-42
2021/04/27 05:49:41;;;;;;;4.28;1.80;;;;;;;;;;5117872;28;20169;-42
2021/04/27 05:52:07;;;;;;;5.55;2.28;;;;;;;;;;5102576;28;20170;-42
2021/04/27 05:54:34;;;;;;;3.33;1.80;;;;;;;;;;5113856;28;20451;-42
2021/04/27 05:57:00;;;;;;;2.55;1.90;;;;;;;;;;5102203;28;20190;-42
2021/04/27 05:59:26;;;;;;;2.70;1.95;;;;;;;;;;5118744;28;20177;-42
2021/04/27 06:01:52;;;;;;;3.55;1.98;;;;;;;;;;5117075;28;20180;-42
2021/04/27 06:04:18;;;;;;;3.60;2.00;;;;;;;;;;5116644;28;20455;-42
2021/04/27 06:06:44;;;;;;;3.47;1.73;;;;;;;;;;5104815;28;20181;-42
2021/04/27 06:09:15;;;;;;;2.60;1.65;;;;;;;;;;5118088;28;20560;-42
2021/04/27 06:11:41;;;;;;;4.18;1.55;;;;;;;;;;5114685;28;20995;-42
2021/04/27 06:14:07;;;;;;;3.40;1.92;;;;;;;;;;5118453;28;20177;-42
2021/04/27 06:16:33;;;;;;;2.47;1.63;;;;;;;;;;5118256;28;20441;-42
2021/04/27 06:18:59;;;;;;;3.85;1.95;;;;;;;;;;5117772;28;20177;-42
2021/04/27 06:21:25;;;;;;;3.45;1.45;;;;;;;;;;5113100;28;20193;-42
2021/04/27 06:23:51;;;;;;;2.42;1.70;;;;;;;;;;5098097;28;20568;-42
2021/04/27 06:26:18;;;;;;;4.95;1.92;;;;;;;;;;5097393;28;20215;-42
2021/04/27 06:28:44;;;;;;;3.17;1.70;;;;;;;;;;5115823;28;20280;-42
2021/04/27 06:31:10;;;;;;;3.00;1.55;;;;;;;;;;5116906;28;20275;-42
2021/04/27 06:33:36;;;;;;;2.50;1.52;;;;;;;;;;5115903;28;20187;-42
2021/04/27 06:36:03;;;;;;;3.05;1.88;;;;;;;;;;5103086;28;20552;-42
2021/04/27 06:38:29;;;;;;;3.10;1.77;;;;;;;;;;5101715;28;20586;-42
2021/04/27 06:40:55;;;;;;;2.50;1.50;;;;;;;;;;5116935;28;20189;-42
2021/04/27 06:43:21;;;;;;;3.80;1.55;;;;;;;;;;5117445;28;20200;-42
2021/04/27 06:45:47;;;;;;;2.90;1.50;;;;;;;;;;5118012;28;20200;-42
2021/04/27 06:48:13;;;;;;;3.95;1.42;;;;;;;;;;5116187;28;20215;-42
2021/04/27 06:50:42;;;;;;;2.83;1.60;;;;;;;;;;5115228;28;20181;-42
2021/04/27 06:53:08;;;;;;;3.15;1.60;;;;;;;;;;5117602;28;20226;-42
2021/04/27 06:55:34;;;;;;;2.55;1.50;;;;;;;;;;5117272;28;20556;-42
2021/04/27 06:58:11;;;;;;;2.80;1.77;;;;;;;;;;5117038;28;20412;-42
2021/04/27 07:00:37;;;;;;;3.25;1.65;;;;;;;;;;5113866;28;20177;-42
2021/04/27 07:03:04;;;;;;;2.55;1.50;;;;;;;;;;5115236;28;20192;-42
2021/04/27 07:05:30;;;;;;;2.42;1.48;;;;;;;;;;5117309;28;20571;-42
2021/04/27 07:07:57;;;;;;;5.00;1.50;;;;;;;;;;5117236;28;20252;-42
2021/04/27 07:10:23;;;;;;;2.50;1.40;;;;;;;;;;5116721;28;20196;-42
2021/04/27 07:12:49;;;;;;;2.60;1.98;;;;;;;;;;5116996;28;20165;-42
2021/04/27 07:15:16;;;;;;;1.95;1.25;;;;;;;;;;5105917;28;20182;-42
2021/04/27 07:17:42;;;;;;;3.03;1.65;;;;;;;;;;5115435;28;20256;-42
2021/04/27 07:20:08;;;;;;;2.38;1.50;;;;;;;;;;5116764;28;20185;-42
2021/04/27 07:22:35;;;;;;;2.47;1.70;;;;;;;;;;5114404;28;20181;-42
2021/04/27 07:25:01;;;;;;;3.38;1.50;;;;;;;;;;5103952;28;20211;-42
2021/04/27 07:27:27;;;;;;;2.85;1.63;;;;;;;;;;5116609;28;20220;-42
2021/04/27 07:29:54;;;;;;;1.88;1.42;;;;;;;;;;5111387;28;20173;-42
2021/04/27 07:32:20;;;;;;;4.00;1.60;;;;;;;;;;5097949;28;20204;-42
2021/04/27 07:34:46;;;;;;;3.28;1.50;;;;;;;;;;5116673;28;20197;-42
2021/04/27 07:37:12;;;;;;;2.47;1.42;;;;;;;;;;5096228;28;20197;-42
2021/04/27 07:39:38;;;;;;;1.85;1.50;;;;;;;;;;5106618;28;20192;-42
2021/04/27 07:42:05;;;;;;;5.38;1.52;;;;;;;;;;5115422;28;20195;-42
2021/04/27 07:44:31;;;;;;;2.17;1.45;;;;;;;;;;5116288;28;20762;-42
2021/04/27 07:46:57;;;;;;;1.85;1.25;;;;;;;;;;5116720;28;20204;-42
2021/04/27 07:49:23;;;;;;;2.05;1.40;;;;;;;;;;5116533;28;20486;-42
2021/04/27 07:51:49;;;;;;;2.00;1.30;;;;;;;;;;5114858;28;20453;-42
2021/04/27 07:54:15;;;;;;;2.05;1.20;;;;;;;;;;5116454;28;20244;-42
2021/04/27 07:56:41;;;;;;;2.00;1.60;;;;;;;;;;5115932;28;20261;-42
2021/04/27 07:59:07;;;;;;;2.63;1.58;;;;;;;;;;5114964;28;20511;-42
2021/04/27 08:01:35;;;;;;;1.85;1.40;;;;;;;;;;5115312;28;20539;-42
2021/04/27 08:04:01;;;;;;;1.70;1.30;;;;;;;;;;5115894;28;20177;-42
2021/04/27 08:06:27;;;;;;;2.67;1.50;;;;;;;;;;5114839;28;20201;-42
2021/04/27 08:08:53;;;;;;;1.85;1.40;;;;;;;;;;5115662;28;20188;-42
2021/04/27 08:11:20;;;;;;;2.50;1.20;;;;;;;;;;5114412;28;20177;-42
2021/04/27 08:13:46;;;;;;;2.42;1.60;;;;;;;;;;5106156;28;20169;-42
2021/04/27 08:16:12;;;;;;;1.90;1.38;;;;;;;;;;5115791;28;20173;-42
2021/04/27 08:18:38;;;;;;;3.40;1.55;;;;;;;;;;5096652;28;20192;-42
2021/04/27 08:21:05;;;;;;;2.72;1.50;;;;;;;;;;5114397;28;20201;-42
2021/04/27 08:23:32;;;;;;;3.20;1.80;;;;;;;;;;5115488;28;20184;-42
2021/04/27 08:25:59;;;;;;;2.95;1.60;;;;;;;;;;5115435;28;20236;-42
2021/04/27 08:28:26;;;;;;;1.83;1.63;;;;;;;;;;5115044;28;20197;-42
2021/04/27 08:30:52;;;;;;;2.20;1.30;;;;;;;;;;5114485;28;20256;-42
2021/04/27 08:33:18;;;;;;;2.22;1.30;;;;;;;;;;5115059;28;20181;-42
2021/04/27 08:35:44;;;;;;;3.15;1.50;;;;;;;;;;5115365;28;20181;-42
2021/04/27 08:38:10;;;;;;;4.45;1.42;;;;;;;;;;5115758;28;20165;-43
2021/04/27 08:40:36;;;;;;;4.20;1.70;;;;;;;;;;5114334;28;20601;-42
2021/04/27 08:43:03;;;;;;;4.68;1.63;;;;;;;;;;5111728;28;20177;-42
2021/04/27 08:45:29;;;;;;;3.28;1.50;;;;;;;;;;5114226;28;20213;-42
2021/04/27 08:47:55;;;;;;;4.88;1.95;;;;;;;;;;5114307;28;20260;-42
2021/04/27 08:50:22;;;;;;;8.27;1.60;;;;;;;;;;5114003;28;20237;-42
2021/04/27 08:52:48;;;;;;;2.00;1.40;;;;;;;;;;5114886;28;20226;-42
2021/04/27 08:55:14;;;;;;;2.80;1.70;;;;;;;;;;5114298;28;20181;-42
2021/04/27 08:57:40;;;;;;;3.65;1.42;;;;;;;;;;5113972;28;20181;-42
2021/04/27 09:00:08;;;;;;;4.10;1.63;;;;;;;;;;5108212;28;20184;-42
2021/04/27 09:02:35;;;;;;;4.43;1.38;;;;;;;;;;5110699;28;20177;-42
2021/04/27 09:05:01;;;;;;;4.47;1.60;;;;;;;;;;5094021;28;20197;-42
2021/04/27 09:07:28;;;;;;;3.30;1.33;;;;;;;;;;5084840;28;20430;-42
2021/04/27 09:09:58;;;;;;;3.55;1.33;;;;;;;;;;5114872;28;20169;-42
2021/04/27 09:12:27;;;;;;;2.65;1.50;;;;;;;;;;5113902;28;20605;-42
2021/04/27 09:14:53;;;;;;;3.83;1.52;;;;;;;;;;5114502;28;20222;-42
2021/04/27 09:17:19;;;;;;;2.53;1.40;;;;;;;;;;5115042;28;20176;-42
2021/04/27 09:19:47;;;;;;;2.80;1.38;;;;;;;;;;5108265;28;20177;-42
2021/04/27 09:22:15;;;;;;;4.13;1.92;;;;;;;;;;5114406;28;20185;-42
2021/04/27 09:24:43;;;;;;;3.97;1.40;;;;;;;;;;5114433;28;20609;-42
2021/04/27 09:27:10;;;;;;;2.63;1.48;;;;;;;;;;5113124;28;20203;-42
2021/04/27 09:29:40;;;;;;;4.68;1.67;;;;;;;;;;5114677;28;20187;-42
2021/04/27 09:32:07;;;;;;;9.20;1.88;;;;;;;;;;5113901;28;20256;-42
2021/04/27 09:34:34;;;;;;;8.77;2.45;;;;;;;;;;5114391;28;20230;-42
2021/04/27 09:37:03;;;;;;;5.53;1.50;;;;;;;;;;5103827;28;20200;-42
2021/04/27 09:39:50;;;;;;;6.05;1.85;;;;;;;;;;5114732;28;20572;-42
2021/04/27 09:42:18;;;;;;;4.63;1.50;;;;;;;;;;5108999;28;20205;-42
2021/04/27 09:44:50;;;;;;;2.80;1.40;;;;;;;;;;5100043;28;20276;-42
2021/04/27 09:47:18;;;;;;;4.88;1.35;;;;;;;;;;5114669;28;20616;-42
2021/04/27 09:49:54;;;;;;;7.32;1.40;;;;;;;;;;5114902;28;20177;-42
2021/04/27 09:52:20;;;;;;;4.57;1.50;;;;;;;;;;5113277;28;20339;-42
2021/04/27 09:54:56;;;;;;;6.22;1.70;;;;;;;;;;5096938;28;20200;-42
2021/04/27 09:57:30;;;;;;;5.88;1.58;;;;;;;;;;5107574;28;20476;-42
2021/04/27 09:59:56;;;;;;;3.40;1.33;;;;;;;;;;5094439;28;20551;-42
2021/04/27 10:02:22;;;;;;;4.32;1.58;;;;;;;;;;5095217;28;20552;-42
2021/04/27 10:04:49;;;;;;;3.00;1.55;;;;;;;;;;5098050;28;20189;-42
2021/04/27 10:07:17;;;;;;;7.38;1.52;;;;;;;;;;5098245;28;20290;-42
2021/04/27 10:09:43;;;;;;;1.67;1.40;;;;;;;;;;5111582;28;20171;-42
2021/04/27 10:12:10;;;;;;;5.10;1.67;;;;;;;;;;5111251;28;20183;-42
2021/04/27 10:14:36;;;;;;;3.83;1.70;;;;;;;;;;5118087;28;20208;-42
2021/04/27 10:17:03;;;;;;;4.72;1.40;;;;;;;;;;5118368;28;20491;-42
2021/04/27 10:19:29;;;;;;;2.92;1.50;;;;;;;;;;5118046;28;20222;-42
2021/04/27 10:21:55;;;;;;;3.15;1.45;;;;;;;;;;5098525;28;20479;-42
2021/04/27 10:24:23;;;;;;;4.20;1.75;;;;;;;;;;5117420;28;20222;-42
2021/04/27 10:26:50;;;;;;;5.25;1.80;;;;;;;;;;5117254;28;20170;-42
2021/04/27 10:29:19;;;;;;;1.67;1.55;;;;;;;;;;5113449;28;20721;-42
2021/04/27 10:31:45;;;;;;;7.25;1.90;;;;;;;;;;5104752;28;20600;-42
2021/04/27 10:34:14;;;;;;;8.35;2.53;;;;;;;;;;5115837;28;20260;-42
2021/04/27 10:37:00;;;;;;;2.58;1.48;;;;;;;;;;5117021;28;20173;-42
2021/04/27 10:39:38;;;;;;;3.90;1.63;;;;;;;;;;5102785;28;20249;-42
2021/04/27 10:42:15;;;;;;;3.40;1.55;;;;;;;;;;5116612;28;20268;-42
2021/04/27 10:45:02;;;;;;;3.05;1.80;;;;;;;;;;5117341;28;20552;-42
2021/04/27 10:47:30;;;;;;;1.90;1.60;;;;;;;;;;5117443;28;20207;-42
2021/04/27 10:49:57;;;;;;;3.03;1.77;;;;;;;;;;5117339;28;20176;-42
2021/04/27 10:52:26;;;;;;;4.32;1.90;;;;;;;;;;5116612;28;20177;-42
2021/04/27 10:54:52;;;;;;;1.92;1.58;;;;;;;;;;5116428;28;20223;-42
2021/04/27 10:57:19;;;;;;;3.83;1.80;;;;;;;;;;5110366;28;20186;-42
2021/04/27 10:59:49;;;;;;;4.35;1.90;;;;;;;;;;5115304;28;20789;-42
2021/04/27 11:02:16;;;;;;;4.20;1.77;;;;;;;;;;5095215;28;20549;-42
2021/04/27 11:04:44;;;;;;;2.08;1.73;;;;;;;;;;5104792;28;20197;-42
2021/04/27 11:07:11;;;;;;;3.45;1.63;;;;;;;;;;5117093;28;20615;-42
2021/04/27 11:09:37;;;;;;;4.70;1.88;;;;;;;;;;5116651;28;20209;-42
2021/04/27 11:12:22;;;;;;;3.35;1.95;;;;;;;;;;5097560;28;20493;-42
2021/04/27 11:15:01;;;;;;;4.07;1.65;;;;;;;;;;5115394;28;20571;-42
2021/04/27 11:17:28;;;;;;;3.58;1.60;;;;;;;;;;5117113;28;20902;-42
2021/04/27 11:19:55;;;;;;;2.47;1.70;;;;;;;;;;5116749;28;20273;-42
2021/04/27 11:22:23;;;;;;;4.72;1.83;;;;;;;;;;5116294;28;20615;-42
2021/04/27 11:24:51;;;;;;;2.17;1.85;;;;;;;;;;5116834;28;20608;-42
2021/04/27 11:27:26;;;;;;;3.35;2.08;;;;;;;;;;5116494;28;20425;-42
2021/04/27 11:29:58;;;;;;;3.92;2.08;;;;;;;;;;5116503;28;20185;-42
2021/04/27 11:32:25;;;;;;;3.58;2.10;;;;;;;;;;5115957;28;20171;-42
2021/04/27 11:34:58;;;;;;;3.75;1.95;;;;;;;;;;5116453;28;20181;-42
2021/04/27 11:37:24;;;;;;;5.38;2.22;;;;;;;;;;5114390;28;20181;-42
2021/04/27 11:39:51;;;;;;;4.90;2.05;;;;;;;;;;5116657;28;20177;-42
2021/04/27 11:42:27;;;;;;;3.30;2.15;;;;;;;;;;5097068;28;20609;-42
2021/04/27 11:45:13;;;;;;;2.83;2.13;;;;;;;;;;5110311;28;20638;-42
2021/04/27 11:47:41;;;;;;;4.20;2.05;;;;;;;;;;5116348;28;20203;-42
2021/04/27 11:50:09;;;;;;;3.72;1.70;;;;;;;;;;5108928;28;20540;-42
2021/04/27 11:52:44;;;;;;;3.30;1.92;;;;;;;;;;5095366;28;20431;-42
2021/04/27 11:55:21;;;;;;;2.75;1.80;;;;;;;;;;5096065;28;20166;-42
2021/04/27 11:57:48;;;;;;;4.05;1.85;;;;;;;;;;5095942;28;20170;-42
2021/04/27 12:00:15;;;;;;;3.50;1.95;;;;;;;;;;5097868;28;20455;-42
2021/04/27 12:02:41;;;;;;;3.05;1.80;;;;;;;;;;5097399;28;20759;-42
2021/04/27 12:05:07;;;;;;;1.90;1.70;;;;;;;;;;5116150;28;20212;-42
2021/04/27 12:07:33;;;;;;;3.85;2.30;;;;;;;;;;5116230;28;20256;-42
2021/04/27 12:10:00;;;;;;;2.67;2.00;;;;;;;;;;5115863;28;20167;-42
2021/04/27 12:12:26;;;;;;;2.90;2.10;;;;;;;;;;5115468;28;20261;-42
2021/04/27 12:14:54;;;;;;;2.88;1.75;;;;;;;;;;5116111;28;20593;-42
2021/04/27 12:17:27;;;;;;;2.92;2.13;;;;;;;;;;5114273;28;20220;-42
2021/04/27 12:20:08;;;;;;;2.92;1.83;;;;;;;;;;5115840;28;20169;-42
2021/04/27 12:22:40;;;;;;;2.15;1.80;;;;;;;;;;5115139;28;20234;-42
2021/04/27 12:25:13;;;;;;;2.70;2.08;;;;;;;;;;5114782;28;20584;-42
2021/04/27 12:27:39;;;;;;;3.15;1.92;;;;;;;;;;5114213;28;20205;-42
2021/04/27 12:30:08;;;;;;;3.10;2.13;;;;;;;;;;5115299;28;20177;-42
2021/04/27 12:32:36;;;;;;;4.88;1.90;;;;;;;;;;5114275;28;20488;-42
2021/04/27 12:35:02;;;;;;;2.47;1.92;;;;;;;;;;5097189;28;20184;-42
2021/04/27 12:37:30;;;;;;;4.25;2.13;;;;;;;;;;5097298;28;20422;-43
2021/04/27 12:39:56;;;;;;;2.42;2.00;;;;;;;;;;5115682;28;20571;-42
2021/04/27 12:42:25;;;;;;;3.45;1.80;;;;;;;;;;5095304;28;20490;-42
2021/04/27 12:45:03;;;;;;;2.70;2.00;;;;;;;;;;5109039;28;20511;-42
2021/04/27 12:47:33;;;;;;;2.72;2.03;;;;;;;;;;5099795;28;20173;-42
2021/04/27 12:50:02;;;;;;;3.60;2.10;;;;;;;;;;5107543;28;20173;-42
2021/04/27 12:52:29;;;;;;;2.13;1.83;;;;;;;;;;5114718;28;20157;-42
2021/04/27 12:54:56;;;;;;;4.10;1.95;;;;;;;;;;5111586;28;20205;-42
2021/04/27 12:57:23;;;;;;;2.53;1.65;;;;;;;;;;5115379;28;20196;-42
2021/04/27 12:59:53;;;;;;;2.78;2.10;;;;;;;;;;5114595;28;20181;-42
2021/04/27 13:02:19;;;;;;;3.88;2.17;;;;;;;;;;5112396;28;20551;-42
2021/04/27 13:04:46;;;;;;;3.03;1.90;;;;;;;;;;5112657;28;20256;-42
2021/04/27 13:07:23;;;;;;;2.92;2.10;;;;;;;;;;5113742;28;20192;-42
2021/04/27 13:09:49;;;;;;;3.97;2.00;;;;;;;;;;5114492;28;20173;-42
2021/04/27 13:12:16;;;;;;;3.92;2.10;;;;;;;;;;5111566;28;20173;-42
2021/04/27 13:14:42;;;;;;;2.78;1.98;;;;;;;;;;5111012;28;20181;-42
2021/04/27 13:17:21;;;;;;;3.00;1.80;;;;;;;;;;5114748;28;20456;-42
2021/04/27 13:19:48;;;;;;;2.95;1.92;;;;;;;;;;5114695;28;20549;-42
2021/04/27 13:22:16;;;;;;;3.28;1.98;;;;;;;;;;5114391;28;20216;-42
2021/04/27 13:24:42;;;;;;;6.13;2.08;;;;;;;;;;5114902;28;20162;-42
2021/04/27 13:27:10;;;;;;;5.78;2.00;;;;;;;;;;5113092;28;20206;-42
2021/04/27 13:29:36;;;;;;;3.50;2.00;;;;;;;;;;5103239;28;20184;-42
2021/04/27 13:32:10;;;;;;;4.25;2.10;;;;;;;;;;5092250;28;20563;-42
2021/04/27 13:34:36;;;;;;;4.18;1.90;;;;;;;;;;5114069;28;20187;-42
2021/04/27 13:37:02;;;;;;;3.35;2.13;;;;;;;;;;5115410;28;20256;-42
2021/04/27 13:39:28;;;;;;;3.35;1.83;;;;;;;;;;5119043;28;20533;-42
2021/04/27 13:41:54;;;;;;;4.43;2.05;;;;;;;;;;5117740;28;20234;-42
2021/04/27 13:44:20;;;;;;;6.55;2.65;;;;;;;;;;5118668;28;20597;-42
2021/04/27 13:46:46;;;;;;;5.68;3.28;;;;;;;;;;5117118;28;20218;-42
2021/04/27 13:49:12;;;;;;;6.45;3.50;;;;;;;;;;5118424;28;20185;-42
2021/04/27 13:51:38;;;;;;;8.57;3.40;;;;;;;;;;5112926;28;20173;-42
2021/04/27 13:54:05;;;;;;;9.38;4.50;;;;;;;;;;5117862;28;20485;-42
2021/04/27 13:56:31;;;;;;;10.23;6.13;;;;;;;;;;5114152;28;20173;-42
2021/04/27 13:58:57;;;;;;;10.35;5.78;;;;;;;;;;5118440;28;20239;-42
2021/04/27 14:01:24;;;;;;;9.32;6.07;;;;;;;;;;5116730;28;20184;-42
2021/04/27 14:03:50;;;;;;;8.98;5.70;;;;;;;;;;5118002;28;20178;-42
2021/04/27 14:06:16;;;;;;;9.88;5.10;;;;;;;;;;5116939;28;20213;-42
2021/04/27 14:08:42;;;;;;;10.05;4.63;;;;;;;;;;5117735;28;20555;-42
2021/04/27 14:11:09;;;;;;;7.40;4.80;;;;;;;;;;5116436;28;20192;-42
2021/04/27 14:13:35;;;;;;;8.85;4.80;;;;;;;;;;5117978;28;20173;-42
2021/04/27 14:16:01;;;;;;;11.25;4.80;;;;;;;;;;5118153;28;20185;-42
2021/04/27 14:18:27;;;;;;;7.63;4.70;;;;;;;;;;5116373;28;20223;-42
2021/04/27 14:20:54;;;;;;;8.65;4.55;;;;;;;;;;5117709;28;20257;-42
2021/04/27 14:23:20;;;;;;;5.85;3.80;;;;;;;;;;5116240;28;20193;-42
2021/04/27 14:25:46;;;;;;;8.43;4.50;;;;;;;;;;5097735;28;20194;-42
2021/04/27 14:28:14;;;;;;;7.63;4.25;;;;;;;;;;5115614;28;20177;-42
2021/04/27 14:30:41;;;;;;;9.27;4.65;;;;;;;;;;5117525;28;20204;-42
2021/04/27 14:33:07;;;;;;;5.95;3.70;;;;;;;;;;5113834;28;20174;-42
2021/04/27 14:35:34;;;;;;;6.63;3.88;;;;;;;;;;5117808;28;20183;-42
2021/04/27 14:38:01;;;;;;;5.70;3.30;;;;;;;;;;5117725;28;20218;-42
2021/04/27 14:40:28;;;;;;;4.68;3.20;;;;;;;;;;5117673;28;20173;-42
2021/04/27 14:42:54;;;;;;;5.10;3.10;;;;;;;;;;5117862;28;20169;-42
2021/04/27 14:45:22;;;;;;;7.45;3.50;;;;;;;;;;5117258;28;20201;-42